createdAt,value
2023-04-19T00:00:30.604Z,22.00
2023-04-19T00:03:03.665Z,21.70
2023-04-19T00:05:38.703Z,22.30
2023-04-19T00:08:11.714Z,22.20
2023-04-19T00:10:44.669Z,23.10
2023-04-19T00:13:17.612Z,21.30
2023-04-19T00:15:50.744Z,22.50
2023-04-19T00:18:40.377Z,21.20
2023-04-19T00:21:12.915Z,23.10
2023-04-19T00:23:46.039Z,22.00
2023-04-19T00:26:18.724Z,21.50
2023-04-19T00:28:55.410Z,21.50
2023-04-19T00:31:28.032Z,22.10
2023-04-19T00:34:01.644Z,21.20
2023-04-19T00:39:05.203Z,19.70
2023-04-19T00:41:37.890Z,20.90
2023-04-19T00:44:11.391Z,22.20
2023-04-19T00:46:44.606Z,20.20
2023-04-19T00:51:48.841Z,19.70
2023-04-19T00:56:55.522Z,19.50
2023-04-19T00:59:30.102Z,21.00
2023-04-19T01:02:02.802Z,19.40
2023-04-19T01:04:36.487Z,20.50
2023-04-19T01:09:44.807Z,20.40
2023-04-19T01:12:17.693Z,20.10
2023-04-19T01:14:51.983Z,19.30
2023-04-19T01:17:27.688Z,20.10
2023-04-19T01:20:06.515Z,19.90
2023-04-19T01:22:40.750Z,19.50
2023-04-19T01:25:13.892Z,20.40
2023-04-19T01:27:48.657Z,20.90
2023-04-19T01:30:21.931Z,19.50
2023-04-19T01:32:54.777Z,19.70
2023-04-19T01:35:27.332Z,19.70
2023-04-19T01:38:00.564Z,20.00
2023-04-19T01:40:33.412Z,19.70
2023-04-19T01:43:05.990Z,19.80
2023-04-19T01:45:39.193Z,18.90
2023-04-19T01:48:12.579Z,19.20
2023-04-19T01:53:16.675Z,18.20
2023-04-19T01:55:49.507Z,18.20
2023-04-19T01:58:22.198Z,19.40
2023-04-19T02:00:55.613Z,19.20
2023-04-19T02:03:32.916Z,18.60
2023-04-19T02:06:05.816Z,18.40
2023-04-19T02:08:38.644Z,19.10
2023-04-19T02:11:16.376Z,18.80
2023-04-19T02:13:49.165Z,18.10
2023-04-19T02:16:21.875Z,19.80
2023-04-19T02:18:55.757Z,18.50
2023-04-19T02:21:28.813Z,18.20
2023-04-19T02:24:01.565Z,18.60
2023-04-19T02:26:34.452Z,17.30
2023-04-19T02:29:07.221Z,17.40
2023-04-19T02:31:39.895Z,17.50
2023-04-19T02:34:15.491Z,17.50
2023-04-19T02:36:48.251Z,17.70
2023-04-19T02:39:20.935Z,17.40
2023-04-19T02:41:54.002Z,17.90
2023-04-19T02:44:26.902Z,16.80
2023-04-19T02:46:59.599Z,17.80
2023-04-19T02:49:37.430Z,15.90
2023-04-19T02:52:10.324Z,17.50
2023-04-19T02:54:44.840Z,17.40
2023-04-19T02:57:17.890Z,16.60
2023-04-19T02:59:51.283Z,16.20
2023-04-19T03:02:23.963Z,15.70
2023-04-19T03:04:57.039Z,15.70
2023-04-19T03:07:29.980Z,16.80
2023-04-19T03:10:02.714Z,16.50
2023-04-19T03:12:37.097Z,17.30
2023-04-19T03:15:12.593Z,16.50
2023-04-19T03:17:45.188Z,15.50
2023-04-19T03:20:18.815Z,15.80
2023-04-19T03:22:51.763Z,16.00
2023-04-19T03:25:25.215Z,15.30
2023-04-19T03:28:04.402Z,16.00
2023-04-19T03:31:01.573Z,15.20
2023-04-19T03:33:34.284Z,15.40
2023-04-19T03:36:07.748Z,16.10
2023-04-19T03:38:44.330Z,15.20
2023-04-19T03:41:25.859Z,15.30
2023-04-19T03:44:21.260Z,15.70
2023-04-19T03:46:53.983Z,15.00
2023-04-19T03:49:29.689Z,14.60
2023-04-19T03:52:10.390Z,14.00
2023-04-19T03:54:44.851Z,14.40
2023-04-19T03:57:28.760Z,14.80
2023-04-19T04:00:07.440Z,13.90
2023-04-19T04:05:19.344Z,13.40
2023-04-19T04:07:51.843Z,15.20
2023-04-19T04:10:24.913Z,13.80
2023-04-19T04:12:57.915Z,14.10
2023-04-19T04:15:36.999Z,14.50
2023-04-19T04:18:13.675Z,14.00
2023-04-19T04:20:46.996Z,14.70
2023-04-19T04:23:21.947Z,15.60
2023-04-19T04:26:02.127Z,14.90
2023-04-19T04:29:01.121Z,15.60
2023-04-19T04:31:36.284Z,15.30
2023-04-19T04:34:11.030Z,15.60
2023-04-19T04:36:51.032Z,15.90
2023-04-19T04:39:25.361Z,15.40
2023-04-19T04:42:02.595Z,15.90
2023-04-19T04:44:43.186Z,16.20
2023-04-19T04:47:42.439Z,16.70
2023-04-19T04:50:19.317Z,15.30
2023-04-19T04:52:54.563Z,16.30
2023-04-19T04:55:31.464Z,15.50
2023-04-19T04:58:06.125Z,16.30
2023-04-19T05:00:58.706Z,16.00
2023-04-19T05:03:33.881Z,16.20
2023-04-19T05:06:08.974Z,17.40
2023-04-19T05:08:42.549Z,16.50
2023-04-19T05:11:22.994Z,16.00
2023-04-19T05:13:56.253Z,17.30
2023-04-19T05:16:29.789Z,15.70
2023-04-19T05:19:03.721Z,15.50
2023-04-19T05:21:39.750Z,16.10
2023-04-19T05:24:14.108Z,16.60
2023-04-19T05:26:47.200Z,16.10
2023-04-19T05:29:21.039Z,15.30
2023-04-19T05:31:56.315Z,14.90
2023-04-19T05:34:33.985Z,15.80
2023-04-19T05:37:07.671Z,15.40
2023-04-19T05:39:43.576Z,15.40
2023-04-19T05:42:16.841Z,16.10
2023-04-19T05:44:50.857Z,15.50
2023-04-19T05:47:23.583Z,16.00
2023-04-19T05:50:18.583Z,15.40
2023-04-19T05:52:58.765Z,17.00
2023-04-19T05:55:32.349Z,17.20
2023-04-19T05:58:04.981Z,16.20
2023-04-19T06:00:38.502Z,16.20
2023-04-19T06:03:14.561Z,16.10
2023-04-19T06:05:55.671Z,17.30
2023-04-19T06:08:32.101Z,16.70
2023-04-19T06:11:19.858Z,15.90
2023-04-19T06:13:59.301Z,16.50
2023-04-19T06:16:32.312Z,22.70
2023-04-19T06:19:05.628Z,16.30
2023-04-19T06:21:38.419Z,14.30
2023-04-19T06:24:12.563Z,13.80
2023-04-19T06:26:45.213Z,11.40
2023-04-19T06:29:20.717Z,10.70
2023-04-19T06:31:54.711Z,9.20
2023-04-19T06:34:28.181Z,8.90
2023-04-19T06:37:02.731Z,8.20
2023-04-19T06:39:37.255Z,7.70
2023-04-19T06:42:12.932Z,7.70
2023-04-19T06:44:46.208Z,6.50
2023-04-19T06:47:18.822Z,6.30
2023-04-19T06:49:51.925Z,4.90
2023-04-19T06:52:24.879Z,5.00
2023-04-19T06:54:57.933Z,5.30
2023-04-19T06:57:30.577Z,3.70
2023-04-19T07:00:04.250Z,3.30
2023-04-19T07:02:37.424Z,3.30
2023-04-19T07:05:14.175Z,3.60
2023-04-19T07:07:46.692Z,2.80
2023-04-19T07:10:19.925Z,3.10
2023-04-19T07:12:52.689Z,3.00
2023-04-19T07:15:26.190Z,2.60
2023-04-19T07:17:59.029Z,3.10
2023-04-19T07:20:32.987Z,3.00
2023-04-19T07:23:06.144Z,3.00
2023-04-19T07:25:38.946Z,3.00
2023-04-19T07:28:12.015Z,2.90
2023-04-19T07:30:46.600Z,3.10
2023-04-19T07:33:19.401Z,2.80
2023-04-19T07:35:52.227Z,2.80
2023-04-19T07:38:43.709Z,3.00
2023-04-19T07:41:16.588Z,2.80
2023-04-19T07:43:49.356Z,3.00
2023-04-19T07:46:24.432Z,2.90
2023-04-19T07:48:56.950Z,2.90
2023-04-19T07:51:29.727Z,3.10
2023-04-19T07:54:02.925Z,3.60
2023-04-19T07:56:35.976Z,3.20
2023-04-19T08:01:44.411Z,3.40
2023-04-19T08:04:19.453Z,3.30
2023-04-19T08:06:53.435Z,3.30
2023-04-19T08:09:26.139Z,3.80
2023-04-19T08:11:59.586Z,3.60
2023-04-19T08:14:40.476Z,3.30
2023-04-19T08:17:25.135Z,3.90
2023-04-19T08:19:59.810Z,3.30
2023-04-19T08:22:33.105Z,3.70
2023-04-19T08:25:05.999Z,3.50
2023-04-19T08:27:40.987Z,3.50
2023-04-19T08:30:15.393Z,3.50
2023-04-19T08:32:48.522Z,4.00
2023-04-19T08:35:22.708Z,3.70
2023-04-19T08:37:56.070Z,4.20
2023-04-19T08:40:30.117Z,4.00
2023-04-19T08:43:07.554Z,3.80
2023-04-19T08:45:41.342Z,3.60
2023-04-19T08:48:15.382Z,4.00
2023-04-19T08:51:03.476Z,4.40
2023-04-19T08:53:39.049Z,4.60
2023-04-19T08:56:24.021Z,4.30
2023-04-19T08:59:15.666Z,4.20
2023-04-19T09:01:50.989Z,4.10
2023-04-19T09:04:36.188Z,4.20
2023-04-19T09:07:24.208Z,4.00
2023-04-19T09:10:12.410Z,4.70
2023-04-19T09:12:46.050Z,4.10
2023-04-19T09:15:37.928Z,4.30
2023-04-19T09:18:12.267Z,4.40
2023-04-19T09:20:46.681Z,4.40
2023-04-19T09:23:22.551Z,4.60
2023-04-19T09:26:22.143Z,4.60
2023-04-19T09:29:00.913Z,3.70
2023-04-19T09:31:50.831Z,5.00
2023-04-19T09:34:24.998Z,4.30
2023-04-19T09:37:11.765Z,4.30
2023-04-19T09:39:47.843Z,4.50
2023-04-19T09:42:42.281Z,4.40
2023-04-19T09:48:05.688Z,4.60
2023-04-19T09:51:01.765Z,4.10
2023-04-19T09:53:37.183Z,4.50
2023-04-19T09:58:49.974Z,5.10
2023-04-19T10:01:27.143Z,4.40
2023-04-19T10:04:13.744Z,4.20
2023-04-19T10:07:19.444Z,4.90
2023-04-19T10:15:05.881Z,3.90
2023-04-19T10:17:38.690Z,3.90
2023-04-19T10:20:19.810Z,3.40
2023-04-19T10:22:53.532Z,3.70
2023-04-19T10:25:32.254Z,4.00
2023-04-19T10:28:05.626Z,4.00
2023-04-19T10:33:10.641Z,4.20
2023-04-19T10:35:48.788Z,4.50
2023-04-19T10:38:21.730Z,4.20
2023-04-19T10:41:02.735Z,4.50
2023-04-19T10:43:36.386Z,4.80
2023-04-19T10:48:54.127Z,4.60
2023-04-19T10:51:30.651Z,4.80
2023-04-19T10:54:04.382Z,5.40
2023-04-19T10:57:02.971Z,5.30
2023-04-19T10:59:36.930Z,6.00
2023-04-19T11:02:34.100Z,5.50
2023-04-19T11:05:07.692Z,5.30
2023-04-19T11:10:29.150Z,5.60
2023-04-19T11:13:02.508Z,5.50
2023-04-19T11:15:35.376Z,5.80
2023-04-19T11:18:12.877Z,5.10
2023-04-19T11:20:54.949Z,5.20
2023-04-19T11:23:28.068Z,5.70
2023-04-19T11:26:01.052Z,5.80
2023-04-19T11:28:34.666Z,5.80
2023-04-19T11:31:08.591Z,5.60
2023-04-19T11:33:41.292Z,6.20
2023-04-19T11:36:16.815Z,5.30
2023-04-19T11:38:52.226Z,5.70
2023-04-19T11:41:25.053Z,5.80
2023-04-19T11:43:58.226Z,6.30
2023-04-19T11:46:30.829Z,6.20
2023-04-19T11:49:03.602Z,5.60
2023-04-19T11:51:37.811Z,7.00
2023-04-19T11:54:18.937Z,6.00
2023-04-19T11:57:08.674Z,6.50
2023-04-19T11:59:41.674Z,6.80
2023-04-19T12:04:46.712Z,13.90
2023-04-19T12:07:20.799Z,78.20
2023-04-19T12:09:56.420Z,24.10
2023-04-19T12:12:38.487Z,12.30
2023-04-19T12:15:13.036Z,8.90
2023-04-19T12:18:03.238Z,6.90
2023-04-19T12:20:37.703Z,6.40
2023-04-19T12:23:14.133Z,7.10
2023-04-19T12:25:49.215Z,8.40
2023-04-19T12:28:21.933Z,7.10
2023-04-19T12:30:55.096Z,6.20
2023-04-19T12:33:30.805Z,6.20
2023-04-19T12:36:03.732Z,7.10
2023-04-19T12:38:39.785Z,6.00
2023-04-19T12:41:13.602Z,7.70
2023-04-19T12:43:47.039Z,6.50
2023-04-19T12:46:26.437Z,6.90
2023-04-19T12:48:59.232Z,6.40
2023-04-19T12:51:33.688Z,7.20
2023-04-19T12:54:07.944Z,7.20
2023-04-19T12:56:42.055Z,6.80
2023-04-19T12:59:16.487Z,7.20
2023-04-19T13:01:50.197Z,6.90
2023-04-19T13:04:23.967Z,6.70
2023-04-19T13:06:57.058Z,7.30
2023-04-19T13:09:32.687Z,7.90
2023-04-19T13:12:06.032Z,7.30
2023-04-19T13:17:09.714Z,11.20
2023-04-19T13:19:43.158Z,27.20
2023-04-19T13:22:16.508Z,13.80
2023-04-19T13:24:49.706Z,15.90
2023-04-19T13:27:23.064Z,19.20
2023-04-19T13:29:56.755Z,14.80
2023-04-19T13:32:29.837Z,14.50
2023-04-19T13:35:02.886Z,14.70
2023-04-19T13:37:35.459Z,12.30
2023-04-19T13:40:18.770Z,14.10
2023-04-19T13:42:55.660Z,13.10
2023-04-19T13:45:34.808Z,15.90
2023-04-19T13:48:13.081Z,16.30
2023-04-19T13:50:51.221Z,14.90
2023-04-19T13:53:24.841Z,12.60
2023-04-19T13:56:00.335Z,13.10
2023-04-19T13:58:33.902Z,13.80
2023-04-19T14:01:06.828Z,13.80
2023-04-19T14:03:39.978Z,12.80
2023-04-19T14:06:12.829Z,13.00
2023-04-19T14:08:46.728Z,13.10
2023-04-19T14:11:19.741Z,13.20
2023-04-19T14:13:52.742Z,14.30
2023-04-19T14:16:26.648Z,14.10
2023-04-19T14:19:03.191Z,12.70
2023-04-19T14:21:36.146Z,14.20
2023-04-19T14:24:10.102Z,14.00
2023-04-19T14:26:44.687Z,15.10
2023-04-19T14:29:17.554Z,15.70
2023-04-19T14:31:50.625Z,19.30
2023-04-19T14:34:23.423Z,15.10
2023-04-19T14:36:56.190Z,16.70
2023-04-19T14:39:29.569Z,14.50
2023-04-19T14:44:33.483Z,15.60
2023-04-19T14:49:38.959Z,14.80
2023-04-19T14:52:22.050Z,15.80
2023-04-19T14:55:02.879Z,13.90
2023-04-19T14:57:37.809Z,14.40
2023-04-19T15:00:17.249Z,14.00
2023-04-19T15:02:53.765Z,14.90
2023-04-19T15:05:32.401Z,14.50
2023-04-19T15:08:20.198Z,15.70
2023-04-19T15:11:03.182Z,15.50
2023-04-19T15:13:36.185Z,15.10
2023-04-19T15:16:13.179Z,15.60
2023-04-19T15:18:46.708Z,15.70
2023-04-19T15:21:24.574Z,18.30
2023-04-19T15:23:57.674Z,18.20
2023-04-19T15:26:31.933Z,16.60
2023-04-19T15:29:04.684Z,18.00
2023-04-19T15:31:37.594Z,17.90
2023-04-19T15:34:10.561Z,17.10
2023-04-19T15:36:43.693Z,17.10
2023-04-19T15:41:48.375Z,16.40
2023-04-19T15:44:21.279Z,18.30
2023-04-19T15:46:54.382Z,20.90
2023-04-19T15:49:27.985Z,18.60
2023-04-19T15:52:00.771Z,23.50
2023-04-19T15:54:33.846Z,19.10
2023-04-19T15:57:07.185Z,21.70
2023-04-19T15:59:40.143Z,22.00
2023-04-19T16:02:14.556Z,23.30
2023-04-19T16:04:50.164Z,22.10
2023-04-19T16:07:24.332Z,22.20
2023-04-19T16:09:59.725Z,22.20
2023-04-19T16:12:35.421Z,19.20
2023-04-19T16:15:09.819Z,20.80
2023-04-19T16:17:42.866Z,19.50
2023-04-19T16:20:16.358Z,18.40
2023-04-19T16:22:49.679Z,18.40
2023-04-19T16:27:54.020Z,20.30
2023-04-19T16:30:30.371Z,20.30
2023-04-19T16:33:03.257Z,20.40
2023-04-19T16:35:36.093Z,20.90
2023-04-19T16:38:08.933Z,21.80
2023-04-19T16:40:49.114Z,22.40
2023-04-19T16:43:22.774Z,25.30
2023-04-19T16:45:55.529Z,25.80
2023-04-19T16:48:28.573Z,22.00
2023-04-19T16:51:01.553Z,21.60
2023-04-19T16:53:34.552Z,15.80
2023-04-19T16:56:07.796Z,15.30
2023-04-19T16:58:41.313Z,15.70
2023-04-19T17:01:15.518Z,17.30
2023-04-19T17:03:50.623Z,15.40
2023-04-19T17:06:24.643Z,16.20
2023-04-19T17:08:57.502Z,15.30
2023-04-19T17:11:33.073Z,14.30
2023-04-19T17:14:06.232Z,14.40
2023-04-19T17:16:39.081Z,13.60
2023-04-19T17:19:11.730Z,12.90
2023-04-19T17:21:46.351Z,15.40
2023-04-19T17:24:19.357Z,14.10
2023-04-19T17:26:52.170Z,17.00
2023-04-19T17:29:39.124Z,15.90
2023-04-19T17:32:16.588Z,15.50
2023-04-19T17:35:10.622Z,16.90
2023-04-19T17:37:53.025Z,17.10
2023-04-19T17:40:29.945Z,18.70
2023-04-19T17:43:04.595Z,18.00
2023-04-19T17:45:39.726Z,23.90
2023-04-19T17:48:14.095Z,24.90
2023-04-19T17:50:47.390Z,23.40
2023-04-19T17:53:21.307Z,22.90
2023-04-19T17:55:54.297Z,20.40
2023-04-19T17:58:27.030Z,21.50
2023-04-19T18:01:04.725Z,20.10
2023-04-19T18:03:38.610Z,25.60
2023-04-19T18:06:12.401Z,24.70
2023-04-19T18:08:47.827Z,19.00
2023-04-19T18:11:23.001Z,25.40
2023-04-19T18:13:56.134Z,29.50
2023-04-19T18:16:29.581Z,24.70
2023-04-19T18:19:02.572Z,18.90
2023-04-19T18:21:38.025Z,18.40
2023-04-19T18:24:12.482Z,17.70
2023-04-19T18:26:47.586Z,17.40
2023-04-19T18:29:21.298Z,18.50
2023-04-19T18:31:56.291Z,19.00
2023-04-19T18:34:29.868Z,20.60
2023-04-19T18:37:06.393Z,19.70
2023-04-19T18:39:39.536Z,20.00
2023-04-19T18:42:13.801Z,19.60
2023-04-19T18:44:54.329Z,18.60
2023-04-19T18:47:29.900Z,17.10
2023-04-19T18:50:05.246Z,18.50
2023-04-19T18:52:40.411Z,18.90
2023-04-19T18:55:15.888Z,18.60
2023-04-19T18:57:49.138Z,17.80
2023-04-19T19:00:23.027Z,17.20
2023-04-19T19:02:55.858Z,17.90
2023-04-19T19:05:30.803Z,20.70
2023-04-19T19:08:04.713Z,19.10
2023-04-19T19:11:07.214Z,20.40
2023-04-19T19:13:30.461Z,19.00
2023-04-19T19:16:03.472Z,20.50
2023-04-19T19:18:36.625Z,20.40
2023-04-19T19:21:09.852Z,21.10
2023-04-19T19:23:43.924Z,20.30
2023-04-19T19:26:16.984Z,20.90
2023-04-19T19:28:51.112Z,21.20
2023-04-19T19:31:32.821Z,22.10
2023-04-19T19:34:30.582Z,21.90
2023-04-19T19:37:03.472Z,21.30
2023-04-19T19:39:36.091Z,21.80
2023-04-19T19:42:09.067Z,23.20
2023-04-19T19:44:42.228Z,22.70
2023-04-19T19:47:17.254Z,23.60
2023-04-19T19:50:34.986Z,22.50
2023-04-19T19:52:45.344Z,25.20
2023-04-19T19:55:18.279Z,23.90
2023-04-19T20:03:06.607Z,22.80
2023-04-19T20:05:39.909Z,23.80
2023-04-19T20:08:15.444Z,25.00
2023-04-19T20:10:48.102Z,24.80
2023-04-19T20:13:21.010Z,23.70
2023-04-19T20:15:53.855Z,23.90
2023-04-19T20:18:27.047Z,24.00
2023-04-19T20:21:00.729Z,23.00
2023-04-19T20:23:33.548Z,23.90
2023-04-19T20:26:06.219Z,25.00
2023-04-19T20:28:38.842Z,24.90
2023-04-19T20:31:11.689Z,24.90
2023-04-19T20:33:47.494Z,25.50
2023-04-19T20:36:22.969Z,24.80
2023-04-19T20:39:06.715Z,25.40
2023-04-19T20:41:39.901Z,24.50
2023-04-19T20:44:13.368Z,24.50
2023-04-19T20:46:48.133Z,24.40
2023-04-19T20:49:22.895Z,23.90
2023-04-19T20:51:57.569Z,25.10
2023-04-19T20:54:31.268Z,25.10
2023-04-19T20:57:05.184Z,25.70
2023-04-19T20:59:38.105Z,22.60
2023-04-19T21:02:12.068Z,24.60
2023-04-19T21:04:44.827Z,25.00
2023-04-19T21:07:17.583Z,25.50
2023-04-19T21:09:50.959Z,20.90
2023-04-19T21:12:23.437Z,25.40
2023-04-19T21:14:56.236Z,25.60
2023-04-19T21:17:29.298Z,24.90
2023-04-19T21:20:02.810Z,26.40
2023-04-19T21:22:35.650Z,25.10
2023-04-19T21:25:10.426Z,25.80
2023-04-19T21:27:44.056Z,25.80
2023-04-19T21:30:17.577Z,27.00
2023-04-19T21:32:52.118Z,26.50
2023-04-19T21:35:25.397Z,28.10
2023-04-19T21:37:57.955Z,27.70
2023-04-19T21:40:31.421Z,28.00
2023-04-19T21:43:05.621Z,27.80
2023-04-19T21:45:38.401Z,26.80
2023-04-19T21:48:11.522Z,29.00
2023-04-19T21:50:44.374Z,27.30
2023-04-19T21:53:16.983Z,28.60
2023-04-19T21:55:51.890Z,26.90
2023-04-19T21:58:24.722Z,29.70
2023-04-19T22:00:57.414Z,28.80
2023-04-19T22:03:30.498Z,30.10
2023-04-19T22:06:03.872Z,29.30
2023-04-19T22:08:38.078Z,29.40
2023-04-19T22:11:10.563Z,30.40
2023-04-19T22:13:44.594Z,30.10
2023-04-19T22:16:17.570Z,31.20
2023-04-19T22:18:50.793Z,30.50
2023-04-19T22:21:23.715Z,30.20
2023-04-19T22:23:56.682Z,32.00
2023-04-19T22:26:29.603Z,32.00
2023-04-19T22:29:02.606Z,32.40
2023-04-19T22:31:35.336Z,32.50
2023-04-19T22:34:08.289Z,32.40
2023-04-19T22:36:40.907Z,32.50
2023-04-19T22:39:14.122Z,25.00
2023-04-19T22:41:46.870Z,29.80
2023-04-19T22:44:19.436Z,33.90
2023-04-19T22:46:52.248Z,33.70
2023-04-19T22:49:25.200Z,33.90
2023-04-19T22:51:58.768Z,33.20
2023-04-19T22:57:02.179Z,31.10
2023-04-19T22:59:34.918Z,31.60
2023-04-19T23:02:09.083Z,32.80
2023-04-19T23:04:42.001Z,33.90
2023-04-19T23:07:14.538Z,33.30
2023-04-19T23:09:47.724Z,32.50
2023-04-19T23:12:20.193Z,32.40
2023-04-19T23:14:54.044Z,35.10
2023-04-19T23:19:58.659Z,30.40
2023-04-19T23:22:31.129Z,33.60
2023-04-19T23:25:04.016Z,35.20
2023-04-19T23:27:36.995Z,35.40
2023-04-19T23:30:11.608Z,32.30
2023-04-19T23:32:44.153Z,33.00
2023-04-19T23:35:17.169Z,35.60
2023-04-19T23:37:49.636Z,34.90
2023-04-19T23:40:23.000Z,33.80
2023-04-19T23:42:55.617Z,33.90
2023-04-19T23:45:28.939Z,34.40
2023-04-19T23:48:01.671Z,34.20
2023-04-19T23:50:34.611Z,32.00
2023-04-19T23:53:07.633Z,34.00
2023-04-19T23:55:40.683Z,35.10
2023-04-19T23:58:13.294Z,34.10
